Time,TemperatureF,DewpointF,PressureIn,WindDirection,WindDirectionDegrees,WindSpeedMPH,WindSpeedGustMPH,Humidity,HourlyPrecipIn,Conditions,Clouds,dailyrainin,SoftwareType,DateUTC
2013-01-26 08:34:00,27.9,5.5,30.17,North,0,0.0,0.0,38,0.00,CLR,CLR,0.00,WeatherDisplay:10.37,2013-01-26 13:34:00,
2013-01-26 08:39:00,27.9,5.5,30.17,North,0,0.0,0.0,38,0.00,CLR,CLR,0.00,WeatherDisplay:10.37,2013-01-26 13:39:00,
2013-01-26 08:44:00,27.9,5.5,30.17,North,0,0.0,0.0,38,0.00,CLR,CLR,0.00,WeatherDisplay:10.37,2013-01-26 13:44:00,
2013-01-26 08:49:00,27.9,5.5,30.17,North,0,0.0,0.0,38,0.00,CLR,CLR,0.00,WeatherDisplay:10.37,2013-01-26 13:49:00,
2013-01-26 08:50:00,27.9,5.5,30.17,North,0,0.0,0.0,38,0.00,FZRA,FZRA,0.00,WeatherDisplay:10.37,2013-01-26 13:50:00,
2013-01-26 08:51:00,27.9,5.5,30.17,North,0,0.0,0.0,38,0.00,FZRA,FZRA,0.00,WeatherDisplay:10.37,2013-01-26 13:51:00,
2013-01-26 08:59:00,27.9,5.5,30.17,North,0,0.0,0.0,38,0.00,FZRA,FZRA,0.00,WeatherDisplay:10.37,2013-01-26 13:59:00,
2013-01-26 09:04:00,27.9,5.5,30.17,North,0,0.0,0.0,38,0.00,FZRA,FZRA,0.00,WeatherDisplay:10.37,2013-01-26 14:04:00,
2013-01-26 09:09:00,27.9,5.5,30.17,North,0,0.0,0.0,38,0.00,FZRA,FZRA,0.00,WeatherDisplay:10.37,2013-01-26 14:09:00,
2013-01-26 09:22:00,27.9,5.5,30.17,North,0,0.0,0.0,38,0.00,CLR,,0.00,WeatherDisplay:10.37,2013-01-26 14:22:00,
2013-01-26 09:27:00,27.9,5.5,30.17,North,0,0.0,0.0,38,0.00,CLR,,0.00,WeatherDisplay:10.37,2013-01-26 14:27:00,
2013-01-26 09:28:00,27.9,5.5,30.17,North,0,0.0,0.0,38,0.00,CLR,,0.00,WeatherDisplay:10.37,2013-01-26 14:28:00,
2013-01-26 09:32:00,27.9,5.5,30.17,North,0,0.0,0.0,38,0.00,CLR,,0.00,WeatherDisplay:10.37,2013-01-26 14:32:00,
2013-01-26 09:33:00,27.9,5.5,30.17,North,0,0.0,0.0,38,0.00,CLR,,0.00,WeatherDisplay:10.37,2013-01-26 14:33:00,
2013-01-26 09:38:00,27.9,5.5,30.17,North,0,0.0,0.0,38,0.00,CLR,,0.00,WeatherDisplay:10.37,2013-01-26 14:38:00,
2013-01-26 09:43:00,27.9,5.5,30.17,North,0,0.0,0.0,38,0.00,CLR,,0.00,WeatherDisplay:10.37,2013-01-26 14:43:00,
2013-01-26 09:48:00,27.9,5.5,30.17,North,0,0.0,0.0,38,0.00,CLR,,0.00,WeatherDisplay:10.37,2013-01-26 14:48:00,
2013-01-26 09:49:00,27.9,5.5,30.17,North,0,0.0,0.0,38,0.00,CLR,,0.00,WeatherDisplay:10.37,2013-01-26 14:49:00,
2013-01-26 09:53:00,27.9,5.5,30.17,North,0,0.0,0.0,38,0.00,CLR,,0.00,WeatherDisplay:10.37,2013-01-26 14:53:00,
2013-01-26 09:54:00,27.9,5.5,30.17,North,0,0.0,0.0,38,0.00,CLR,,0.00,WeatherDisplay:10.37,2013-01-26 14:54:00,
2013-01-26 09:58:00,27.9,5.5,30.17,North,0,0.0,0.0,38,0.00,CLR,,0.00,WeatherDisplay:10.37,2013-01-26 14:58:00,
2013-01-26 09:59:00,27.9,5.5,30.17,North,0,0.0,0.0,38,0.00,CLR,,0.00,WeatherDisplay:10.37,2013-01-26 14:59:00,
2013-01-26 10:03:00,27.9,5.5,30.17,North,0,0.0,0.0,38,0.00,CLR,,0.00,WeatherDisplay:10.37,2013-01-26 15:03:00,
2013-01-26 10:04:00,27.9,5.5,30.17,North,0,0.0,0.0,38,0.00,CLR,,0.00,WeatherDisplay:10.37,2013-01-26 15:04:00,
2013-01-26 10:09:00,27.9,5.5,30.17,North,0,0.0,0.0,38,0.00,CLR,,0.00,WeatherDisplay:10.37,2013-01-26 15:09:00,
2013-01-26 10:14:00,27.9,5.5,30.17,North,0,0.0,0.0,38,0.00,CLR,,0.00,WeatherDisplay:10.37,2013-01-26 15:14:00,
2013-01-26 10:19:00,27.9,5.5,30.17,North,0,0.0,0.0,38,0.00,CLR,,0.00,WeatherDisplay:10.37,2013-01-26 15:19:00,
2013-01-26 10:24:00,27.9,5.5,30.17,North,0,0.0,0.0,38,0.00,CLR,,0.00,WeatherDisplay:10.37,2013-01-26 15:24:00,
2013-01-26 10:29:00,27.9,5.5,30.17,North,0,0.0,0.0,38,0.00,CLR,,0.00,WeatherDisplay:10.37,2013-01-26 15:29:00,
2013-01-26 10:30:00,27.9,5.5,30.17,North,0,0.0,0.0,38,0.00,CLR,,0.00,WeatherDisplay:10.37,2013-01-26 15:30:00,
2013-01-26 10:34:00,33.9,4.9,30.22,West,271,5.8,5.8,29,0.00,CLR,,0.00,WeatherDisplay:10.37,2013-01-26 15:34:00,
2013-01-26 10:35:00,33.9,4.9,30.22,West,271,5.8,5.8,29,0.00,CLR,,0.00,WeatherDisplay:10.37,2013-01-26 15:35:00,
2013-01-26 10:39:00,33.9,4.9,30.22,West,271,5.8,5.8,29,0.00,CLR,,0.00,WeatherDisplay:10.37,2013-01-26 15:39:00,
2013-01-26 10:40:00,33.9,4.9,30.22,West,271,5.8,5.8,29,0.00,CLR,,0.00,WeatherDisplay:10.37,2013-01-26 15:40:00,
2013-01-26 10:44:00,33.9,4.9,30.22,West,271,5.8,5.8,29,0.00,CLR,,0.00,WeatherDisplay:10.37,2013-01-26 15:44:00,
2013-01-26 10:45:00,33.9,4.9,30.22,West,271,5.8,5.8,29,0.00,CLR,,0.00,WeatherDisplay:10.37,2013-01-26 15:45:00,
2013-01-26 10:50:00,33.9,4.9,30.22,West,271,0.1,5.8,29,0.00,CLR,,0.00,WeatherDisplay:10.37,2013-01-26 15:50:00,
2013-01-26 10:55:00,33.9,4.9,30.22,West,271,0.1,5.8,29,0.00,CLR,,0.00,WeatherDisplay:10.37,2013-01-26 15:55:00,
2013-01-26 11:00:00,33.9,4.9,30.22,West,271,0.1,5.8,29,0.00,CLR,,0.00,WeatherDisplay:10.37,2013-01-26 16:00:00,
2013-01-26 11:05:00,36.7,5.0,30.22,NW,325,5.9,10.4,26,0.00,CLR,,0.00,WeatherDisplay:10.37,2013-01-26 16:05:00,
2013-01-26 11:06:00,36.7,5.0,30.22,NW,315,7.2,12.2,26,0.00,CLR,,0.00,WeatherDisplay:10.37,2013-01-26 16:06:00,
2013-01-26 11:10:00,36.7,5.0,30.22,WNW,289,6.6,8.1,26,0.00,CLR,,0.01,WeatherDisplay:10.37,2013-01-26 16:10:00,
2013-01-26 11:11:00,36.3,5.5,30.22,NW,322,9.8,12.7,27,0.01,RA,,0.01,WeatherDisplay:10.37,2013-01-26 16:11:00,
2013-01-26 11:15:00,36.3,4.6,30.22,WNW,284,15.0,15.0,26,0.01,RA,,0.01,WeatherDisplay:10.37,2013-01-26 16:15:00,
2013-01-26 11:16:00,36.5,5.6,30.22,WNW,299,15.0,15.0,27,0.01,RA,,0.01,WeatherDisplay:10.37,2013-01-26 16:16:00,
2013-01-26 11:21:00,37.0,5.2,30.22,West,272,5.9,8.6,26,0.02,RA,,0.02,WeatherDisplay:10.37,2013-01-26 16:21:00,
2013-01-26 11:26:00,36.6,5.7,30.22,NW,320,7.2,10.4,27,0.02,RA,,0.02,WeatherDisplay:10.37,2013-01-26 16:26:00,
2013-01-26 11:31:00,36.4,6.3,30.22,WNW,289,8.3,8.3,28,0.03,RA,,0.03,WeatherDisplay:10.37,2013-01-26 16:31:00,
2013-01-26 11:36:00,36.5,6.4,30.21,West,277,7.0,11.5,28,0.03,RA,,0.03,WeatherDisplay:10.37,2013-01-26 16:36:00,
2013-01-26 11:41:00,36.2,6.2,30.21,NW,305,10.7,12.7,28,0.03,CLR,,0.03,WeatherDisplay:10.37,2013-01-26 16:41:00,
2013-01-26 11:42:00,36.2,4.5,30.21,NW,306,10.0,15.0,26,0.03,CLR,,0.03,WeatherDisplay:10.37,2013-01-26 16:42:00,
2013-01-26 11:46:00,26.7,-2.1,30.21,West,272,7.8,8.1,28,0.03,CLR,,0.03,WeatherDisplay:10.37,2013-01-26 16:46:00,
2013-01-26 11:47:00,26.8,-2.7,30.21,NW,308,7.0,15.0,27,0.03,CLR,,0.03,WeatherDisplay:10.37,2013-01-26 16:47:00,
2013-01-26 11:51:00,36.9,6.8,30.21,NW,315,7.1,10.4,28,0.04,RA,,0.04,WeatherDisplay:10.37,2013-01-26 16:51:00,
2013-01-26 11:52:00,37.2,5.4,30.21,NNW,337,7.1,10.4,26,0.04,RA,,0.04,WeatherDisplay:10.37,2013-01-26 16:52:00,
2013-01-26 11:56:00,36.9,6.0,30.21,NW,325,8.7,10.4,27,0.04,RA,,0.04,WeatherDisplay:10.37,2013-01-26 16:56:00,
2013-01-26 11:57:00,36.9,6.0,30.21,West,277,8.2,11.5,27,0.04,RA,,0.04,WeatherDisplay:10.37,2013-01-26 16:57:00,
2013-01-26 11:58:00,37.1,6.9,30.21,NW,323,8.8,11.5,28,0.04,RA,,0.04,WeatherDisplay:10.37,2013-01-26 16:58:00,
2013-01-26 12:01:00,37.7,8.2,30.20,WNW,294,6.5,12.7,29,0.04,CLR,,0.04,WeatherDisplay:10.37,2013-01-26 17:01:00,
2013-01-26 12:02:00,37.7,8.2,30.20,WNW,294,6.5,12.7,29,0.04,CLR,,0.04,WeatherDisplay:10.37,2013-01-26 17:02:00,
2013-01-26 12:03:00,36.9,6.8,30.20,NW,323,9.0,11.5,28,0.04,CLR,,0.04,WeatherDisplay:10.37,2013-01-26 17:03:00,
2013-01-26 12:07:00,37.0,6.9,30.20,NW,313,9.8,11.5,28,0.04,CLR,,0.04,WeatherDisplay:10.37,2013-01-26 17:07:00,
2013-01-26 12:08:00,37.3,7.9,30.20,NNW,343,8.2,11.5,29,0.04,CLR,,0.04,WeatherDisplay:10.37,2013-01-26 17:08:00,
2013-01-26 12:12:00,36.8,6.7,30.20,NW,306,11.6,13.8,28,0.04,CLR,,0.04,WeatherDisplay:10.37,2013-01-26 17:12:00,
2013-01-26 12:13:00,36.7,6.6,30.20,West,280,7.4,12.7,28,0.04,CLR,,0.04,WeatherDisplay:10.37,2013-01-26 17:13:00,
2013-01-26 12:17:00,36.9,6.8,30.19,NNW,336,10.8,16.1,28,0.03,CLR,,0.04,WeatherDisplay:10.37,2013-01-26 17:17:00,
2013-01-26 12:18:00,37.0,6.1,30.19,WNW,292,8.7,13.8,27,0.03,CLR,,0.04,WeatherDisplay:10.37,2013-01-26 17:18:00,
2013-01-26 12:22:00,37.3,7.1,30.19,North,357,10.2,12.7,28,0.02,CLR,,0.04,WeatherDisplay:10.37,2013-01-26 17:22:00,
2013-01-26 12:23:00,37.4,7.2,30.19,NNW,344,10.8,12.7,28,0.02,CLR,,0.04,WeatherDisplay:10.37,2013-01-26 17:23:00,
2013-01-26 12:24:00,36.9,6.8,30.19,NW,320,11.1,15.0,28,0.02,CLR,,0.04,WeatherDisplay:10.37,2013-01-26 17:24:00,
2013-01-26 12:27:00,38.1,7.8,30.19,WNW,294,5.4,9.2,28,0.01,CLR,,0.04,WeatherDisplay:10.37,2013-01-26 17:27:00,
2013-01-26 12:28:00,37.9,6.0,30.19,WNW,289,7.8,9.2,26,0.01,CLR,,0.04,WeatherDisplay:10.37,2013-01-26 17:28:00,
2013-01-26 12:29:00,37.7,7.5,30.19,NW,311,8.6,13.8,28,0.01,CLR,,0.04,WeatherDisplay:10.37,2013-01-26 17:29:00,
2013-01-26 12:32:00,37.8,6.8,30.19,NW,306,10.5,14.9,27,0.01,CLR,,0.04,WeatherDisplay:10.37,2013-01-26 17:32:00,
2013-01-26 12:33:00,37.0,6.1,30.19,North,352,12.0,12.7,27,0.01,CLR,,0.04,WeatherDisplay:10.37,2013-01-26 17:33:00,
2013-01-26 12:34:00,37.0,6.9,30.19,NW,318,11.7,15.0,28,0.01,CLR,,0.04,WeatherDisplay:10.37,2013-01-26 17:34:00,
2013-01-26 12:37:00,38.5,8.9,30.18,NNW,332,3.2,8.1,29,0.01,CLR,,0.04,WeatherDisplay:10.37,2013-01-26 17:37:00,
2013-01-26 12:38:00,38.0,6.1,30.18,NNW,346,7.3,12.4,26,0.01,CLR,,0.04,WeatherDisplay:10.37,2013-01-26 17:38:00,
2013-01-26 12:39:00,37.8,6.8,30.18,NNW,339,11.8,12.7,27,0.01,CLR,,0.04,WeatherDisplay:10.37,2013-01-26 17:39:00,
2013-01-26 12:42:00,37.1,6.1,30.18,NNW,329,8.6,13.8,27,0.01,CLR,,0.04,WeatherDisplay:10.37,2013-01-26 17:42:00,
2013-01-26 12:43:00,37.0,6.1,30.18,NW,326,9.8,12.7,27,0.01,CLR,,0.04,WeatherDisplay:10.37,2013-01-26 17:43:00,
2013-01-26 12:44:00,37.2,6.2,30.18,NNW,347,11.2,13.8,27,0.01,CLR,,0.04,WeatherDisplay:10.37,2013-01-26 17:44:00,
2013-01-26 12:47:00,37.9,7.6,30.18,WNW,292,7.7,11.5,28,0.01,CLR,,0.04,WeatherDisplay:10.37,2013-01-26 17:47:00,
2013-01-26 12:48:00,37.4,5.6,30.18,WNW,292,10.2,11.5,26,0.00,CLR,,0.04,WeatherDisplay:10.37,2013-01-26 17:48:00,
2013-01-26 12:49:00,37.5,5.7,30.18,WNW,298,8.9,11.5,26,0.00,CLR,,0.04,WeatherDisplay:10.37,2013-01-26 17:49:00,
2013-01-26 12:53:00,37.9,6.0,30.19,NNW,339,11.7,13.8,26,0.00,CLR,,0.04,WeatherDisplay:10.37,2013-01-26 17:53:00,
2013-01-26 12:54:00,37.6,7.4,30.18,NW,306,9.1,15.0,28,0.00,CLR,,0.04,WeatherDisplay:10.37,2013-01-26 17:54:00,
2013-01-26 12:58:00,37.6,7.4,30.19,NW,316,8.9,10.4,28,0.00,CLR,,0.04,WeatherDisplay:10.37,2013-01-26 17:58:00,
2013-01-26 12:59:00,37.6,8.2,30.19,NW,320,9.7,13.1,29,0.00,CLR,,0.04,WeatherDisplay:10.37,2013-01-26 17:59:00,
2013-01-26 13:03:00,37.4,6.4,30.19,NW,304,11.3,15.0,27,0.00,CLR,,0.04,WeatherDisplay:10.37,2013-01-26 18:03:00,
2013-01-26 13:04:00,37.2,7.0,30.19,NW,322,8.9,15.0,28,0.00,CLR,,0.04,WeatherDisplay:10.37,2013-01-26 18:04:00,
2013-01-26 13:05:00,37.3,7.1,30.19,WNW,294,6.0,15.0,28,0.00,CLR,,0.04,WeatherDisplay:10.37,2013-01-26 18:05:00,
2013-01-26 13:08:00,37.7,7.5,30.19,NNW,339,9.7,12.9,28,0.00,CLR,,0.04,WeatherDisplay:10.37,2013-01-26 18:08:00,
2013-01-26 13:09:00,37.6,8.2,30.19,North,3,10.0,16.1,29,0.00,CLR,,0.04,WeatherDisplay:10.37,2013-01-26 18:09:00,
2013-01-26 13:10:00,37.2,7.0,30.19,North,4,9.4,16.1,28,0.00,CLR,,0.04,WeatherDisplay:10.37,2013-01-26 18:10:00,
2013-01-26 13:13:00,37.2,7.8,30.19,NW,309,7.4,11.5,29,0.00,CLR,,0.04,WeatherDisplay:10.37,2013-01-26 18:13:00,
2013-01-26 13:14:00,37.2,7.8,30.19,NNW,339,7.4,11.5,29,0.00,CLR,,0.04,WeatherDisplay:10.37,2013-01-26 18:14:00,
2013-01-26 13:15:00,36.7,6.6,30.19,West,281,9.5,11.5,28,0.00,CLR,,0.04,WeatherDisplay:10.37,2013-01-26 18:15:00,
2013-01-26 13:19:00,36.5,6.4,30.19,WNW,287,11.6,12.7,28,0.00,CLR,,0.04,WeatherDisplay:10.37,2013-01-26 18:19:00,
2013-01-26 13:20:00,36.8,6.7,30.19,NNW,332,12.2,13.8,28,0.00,CLR,,0.04,WeatherDisplay:10.37,2013-01-26 18:20:00,
2013-01-26 13:24:00,37.3,7.9,30.19,NW,311,6.3,10.4,29,0.00,CLR,,0.04,WeatherDisplay:10.37,2013-01-26 18:24:00,
2013-01-26 13:25:00,37.0,7.6,30.19,WNW,294,5.8,9.2,29,0.00,CLR,,0.04,WeatherDisplay:10.37,2013-01-26 18:25:00,
2013-01-26 13:29:00,37.1,7.7,30.18,NW,311,6.0,13.8,29,0.00,CLR,,0.04,WeatherDisplay:10.37,2013-01-26 18:29:00,
2013-01-26 13:30:00,37.4,8.0,30.18,West,272,6.1,10.4,29,0.00,CLR,,0.04,WeatherDisplay:10.37,2013-01-26 18:30:00,
2013-01-26 13:31:00,37.3,7.9,30.18,WNW,298,8.6,12.7,29,0.00,CLR,,0.04,WeatherDisplay:10.37,2013-01-26 18:31:00,
2013-01-26 13:34:00,37.1,8.5,30.18,NW,323,4.2,8.1,30,0.00,CLR,,0.04,WeatherDisplay:10.37,2013-01-26 18:34:00,
2013-01-26 13:35:00,37.4,8.0,30.18,NW,316,6.6,8.1,29,0.00,CLR,,0.04,WeatherDisplay:10.37,2013-01-26 18:35:00,
2013-01-26 13:36:00,37.2,7.0,30.18,NW,318,6.3,11.5,28,0.00,CLR,,0.04,WeatherDisplay:10.37,2013-01-26 18:36:00,
2013-01-26 13:39:00,37.9,7.6,30.18,West,271,5.9,6.9,28,0.00,CLR,,0.04,WeatherDisplay:10.37,2013-01-26 18:39:00,
2013-01-26 13:40:00,38.4,8.9,30.18,NW,313,6.6,9.5,29,0.00,CLR,,0.04,WeatherDisplay:10.37,2013-01-26 18:40:00,
2013-01-26 13:41:00,37.9,6.8,30.18,WNW,294,8.1,8.1,27,0.00,CLR,,0.04,WeatherDisplay:10.37,2013-01-26 18:41:00,
2013-01-26 13:44:00,37.8,7.6,30.18,NNW,329,7.0,8.1,28,0.00,CLR,,0.04,WeatherDisplay:10.37,2013-01-26 18:44:00,
2013-01-26 13:45:00,37.5,6.5,30.18,NW,316,8.4,11.5,27,0.00,CLR,,0.04,WeatherDisplay:10.37,2013-01-26 18:45:00,
2013-01-26 13:46:00,37.8,7.6,30.18,West,275,7.8,11.5,28,0.00,CLR,,0.04,WeatherDisplay:10.37,2013-01-26 18:46:00,
2013-01-26 13:50:00,38.4,7.3,30.18,West,263,9.3,12.7,27,0.00,CLR,,0.04,WeatherDisplay:10.37,2013-01-26 18:50:00,
2013-01-26 13:51:00,38.2,7.9,30.18,WNW,282,8.0,11.5,28,0.00,CLR,,0.04,WeatherDisplay:10.37,2013-01-26 18:51:00,
2013-01-26 13:55:00,38.7,8.3,30.18,West,260,8.1,9.2,28,0.00,CLR,,0.04,WeatherDisplay:10.37,2013-01-26 18:55:00,
2013-01-26 13:56:00,39.4,7.3,30.18,NW,316,9.1,13.8,26,0.00,CLR,,0.04,WeatherDisplay:10.37,2013-01-26 18:56:00,
2013-01-26 14:00:00,37.9,6.8,30.18,NW,322,13.5,15.0,27,0.00,CLR,,0.04,WeatherDisplay:10.37,2013-01-26 19:00:00,
2013-01-26 14:01:00,38.2,7.9,30.18,NW,326,11.6,17.3,28,0.00,CLR,,0.04,WeatherDisplay:10.37,2013-01-26 19:01:00,
2013-01-26 14:05:00,38.3,6.4,30.18,NNW,330,12.5,16.1,26,0.00,CLR,,0.04,WeatherDisplay:10.37,2013-01-26 19:05:00,
2013-01-26 14:06:00,38.4,7.3,30.18,NNW,330,9.6,16.1,27,0.00,CLR,,0.04,WeatherDisplay:10.37,2013-01-26 19:06:00,
2013-01-26 14:20:00,38.5,6.5,30.18,NW,325,16.1,16.1,26,0.00,CLR,,0.04,WeatherDisplay:10.37,2013-01-26 19:20:00,
2013-01-26 14:21:00,38.3,7.2,30.18,NW,325,16.1,16.1,27,0.00,CLR,,0.04,WeatherDisplay:10.37,2013-01-26 19:21:00,
2013-01-26 14:25:00,38.1,7.8,30.18,NNW,343,10.5,13.8,28,0.00,RA,,0.04,WeatherDisplay:10.37,2013-01-26 19:25:00,
2013-01-26 14:26:00,38.1,7.0,30.18,NW,306,10.5,13.8,27,0.00,RA,,0.04,WeatherDisplay:10.37,2013-01-26 19:26:00,
2013-01-26 14:39:00,38.0,7.7,30.18,North,350,0.0,12.7,28,0.00,RA,,0.04,WeatherDisplay:10.37,2013-01-26 19:39:00,
2013-01-26 14:40:00,38.6,7.4,30.18,NW,322,0.0,12.7,27,0.00,RA,,0.04,WeatherDisplay:10.37,2013-01-26 19:40:00,
2013-01-26 14:44:00,38.3,8.0,30.18,NW,318,7.9,9.2,28,0.00,CLR,,0.04,WeatherDisplay:10.37,2013-01-26 19:44:00,
2013-01-26 14:45:00,38.2,7.9,30.18,NNW,346,7.1,10.4,28,0.00,CLR,,0.04,WeatherDisplay:10.37,2013-01-26 19:45:00,
2013-01-26 14:49:00,38.1,7.0,30.19,West,280,9.1,15.0,27,0.00,CLR,,0.04,WeatherDisplay:10.37,2013-01-26 19:49:00,
2013-01-26 14:50:00,38.1,7.0,30.19,West,280,9.1,15.0,27,0.00,CLR,,0.04,WeatherDisplay:10.37,2013-01-26 19:50:00,
2013-01-26 14:54:00,38.8,7.6,30.19,North,359,6.6,10.4,27,0.00,CLR,,0.04,WeatherDisplay:10.37,2013-01-26 19:54:00,
2013-01-26 14:55:00,38.7,7.5,30.19,North,359,4.9,9.2,27,0.00,CLR,,0.04,WeatherDisplay:10.37,2013-01-26 19:55:00,
2013-01-26 15:00:00,38.6,6.6,30.19,NW,309,7.0,12.7,26,0.00,CLR,,0.04,WeatherDisplay:10.37,2013-01-26 20:00:00,
2013-01-26 15:05:00,37.7,6.7,30.19,NNW,329,8.1,11.5,27,0.00,CLR,,0.04,WeatherDisplay:10.37,2013-01-26 20:05:00,
2013-01-26 15:09:00,38.2,7.1,30.19,NW,304,11.5,11.5,27,0.00,CLR,,0.04,WeatherDisplay:10.37,2013-01-26 20:09:00,
2013-01-26 15:10:00,38.2,7.9,30.19,NNW,328,11.5,11.5,28,0.00,CLR,,0.04,WeatherDisplay:10.37,2013-01-26 20:10:00,
2013-01-26 15:14:00,38.8,8.4,30.19,NNW,333,2.9,16.1,28,0.00,CLR,,0.04,WeatherDisplay:10.37,2013-01-26 20:14:00,
2013-01-26 15:15:00,39.0,8.6,30.19,NNW,333,2.0,16.1,28,0.00,CLR,,0.04,WeatherDisplay:10.37,2013-01-26 20:15:00,
2013-01-26 15:16:00,38.9,7.7,30.19,NNW,333,0.0,0.0,27,0.00,CLR,,0.04,WeatherDisplay:10.37,2013-01-26 20:16:00,
2013-01-26 15:20:00,38.9,7.7,30.20,NW,320,7.1,8.1,27,0.00,CLR,,0.04,WeatherDisplay:10.37,2013-01-26 20:20:00,
2013-01-26 15:21:00,39.2,8.8,30.20,NNW,344,1.0,4.6,28,0.00,CLR,,0.04,WeatherDisplay:10.37,2013-01-26 20:21:00,
2013-01-26 15:25:00,38.1,7.8,30.20,NNW,329,6.3,10.4,28,0.00,CLR,,0.04,WeatherDisplay:10.37,2013-01-26 20:25:00,
2013-01-26 15:26:00,37.9,6.8,30.20,WNW,301,10.4,11.5,27,0.00,CLR,,0.04,WeatherDisplay:10.37,2013-01-26 20:26:00,
2013-01-26 15:30:00,38.1,6.2,30.20,West,277,6.1,9.2,26,0.00,CLR,,0.04,WeatherDisplay:10.37,2013-01-26 20:30:00,
2013-01-26 15:31:00,38.8,8.4,30.20,NW,305,6.5,9.2,28,0.00,CLR,,0.04,WeatherDisplay:10.37,2013-01-26 20:31:00,
2013-01-26 15:35:00,38.7,7.5,30.20,NW,305,8.3,11.5,27,0.00,CLR,,0.04,WeatherDisplay:10.37,2013-01-26 20:35:00,
2013-01-26 15:37:00,38.9,8.5,30.21,North,349,9.5,12.7,28,0.00,CLR,,0.04,WeatherDisplay:10.37,2013-01-26 20:37:00,
2013-01-26 15:40:00,38.3,7.2,30.21,WNW,292,10.2,17.3,27,0.00,CLR,,0.04,WeatherDisplay:10.37,2013-01-26 20:40:00,
2013-01-26 15:42:00,38.6,8.2,30.21,WNW,294,8.8,11.5,28,0.00,CLR,,0.04,WeatherDisplay:10.37,2013-01-26 20:42:00,
2013-01-26 15:45:00,38.6,7.4,30.21,WNW,295,8.3,12.7,27,0.00,CLR,,0.04,WeatherDisplay:10.37,2013-01-26 20:45:00,
2013-01-26 15:47:00,38.9,6.9,30.21,WNW,295,5.5,7.7,26,0.00,CLR,,0.04,WeatherDisplay:10.37,2013-01-26 20:47:00,
2013-01-26 15:50:00,38.7,7.5,30.21,WNW,292,8.6,10.4,27,0.00,CLR,,0.04,WeatherDisplay:10.37,2013-01-26 20:50:00,
2013-01-26 15:51:00,38.7,7.5,30.21,North,350,9.2,11.5,27,0.00,CLR,,0.04,WeatherDisplay:10.37,2013-01-26 20:51:00,
2013-01-26 15:52:00,38.5,7.4,30.21,NNW,347,7.9,12.7,27,0.00,CLR,,0.04,WeatherDisplay:10.37,2013-01-26 20:52:00,
2013-01-26 15:55:00,38.6,8.2,30.22,NW,313,6.5,10.4,28,0.00,CLR,,0.04,WeatherDisplay:10.37,2013-01-26 20:55:00,
2013-01-26 15:56:00,38.9,7.7,30.22,WNW,296,6.6,9.2,27,0.00,CLR,,0.04,WeatherDisplay:10.37,2013-01-26 20:56:00,
2013-01-26 15:57:00,39.2,8.0,30.22,NW,309,2.8,8.1,27,0.00,CLR,,0.04,WeatherDisplay:10.37,2013-01-26 20:57:00,
2013-01-26 16:00:00,38.9,8.5,30.22,NNW,328,6.8,11.5,28,0.00,CLR,,0.04,WeatherDisplay:10.37,2013-01-26 21:00:00,
2013-01-26 16:01:00,38.9,8.5,30.22,WNW,302,6.1,11.5,28,0.00,CLR,,0.04,WeatherDisplay:10.37,2013-01-26 21:01:00,
2013-01-26 16:02:00,39.4,8.9,30.22,NW,318,1.1,8.1,28,0.00,CLR,,0.04,WeatherDisplay:10.37,2013-01-26 21:02:00,
2013-01-26 16:05:00,39.5,8.2,30.22,WNW,296,4.3,5.8,27,0.00,CLR,,0.04,WeatherDisplay:10.37,2013-01-26 21:05:00,
2013-01-26 16:06:00,39.5,8.2,30.22,West,275,5.4,8.8,27,0.00,CLR,,0.04,WeatherDisplay:10.37,2013-01-26 21:06:00,
2013-01-26 16:07:00,39.5,8.2,30.22,WNW,301,6.5,6.5,27,0.00,CLR,,0.04,WeatherDisplay:10.37,2013-01-26 21:07:00,
2013-01-26 16:11:00,38.3,8.8,30.22,WNW,294,7.5,10.4,29,0.00,CLR,,0.04,WeatherDisplay:10.37,2013-01-26 21:11:00,
2013-01-26 16:12:00,38.1,7.8,30.22,NW,323,9.1,10.4,28,0.00,CLR,,0.04,WeatherDisplay:10.37,2013-01-26 21:12:00,
2013-01-26 16:16:00,38.5,8.2,30.22,NNW,342,6.1,10.4,28,0.00,CLR,,0.04,WeatherDisplay:10.37,2013-01-26 21:16:00,
2013-01-26 16:18:00,38.2,7.9,30.22,NW,318,8.6,15.0,28,0.00,CLR,,0.04,WeatherDisplay:10.37,2013-01-26 21:18:00,
2013-01-26 16:21:00,37.8,7.6,30.23,WNW,301,7.7,10.2,28,0.00,CLR,,0.04,WeatherDisplay:10.37,2013-01-26 21:21:00,
2013-01-26 16:23:00,38.1,8.6,30.23,NNW,339,4.0,5.8,29,0.00,CLR,,0.04,WeatherDisplay:10.37,2013-01-26 21:23:00,
2013-01-26 16:26:00,38.1,7.8,30.23,NNW,333,6.0,8.1,28,0.00,CLR,,0.04,WeatherDisplay:10.37,2013-01-26 21:26:00,
2013-01-26 16:27:00,37.9,7.6,30.23,NW,322,5.8,9.6,28,0.00,CLR,,0.04,WeatherDisplay:10.37,2013-01-26 21:27:00,
2013-01-26 16:28:00,37.5,8.8,30.23,NW,323,8.7,11.5,30,0.00,CLR,,0.04,WeatherDisplay:10.37,2013-01-26 21:28:00,
2013-01-26 16:31:00,38.0,8.5,30.23,NW,311,5.6,8.1,29,0.00,CLR,,0.04,WeatherDisplay:10.37,2013-01-26 21:31:00,
2013-01-26 16:32:00,37.7,9.0,30.23,NNW,336,6.5,9.2,30,0.00,CLR,,0.04,WeatherDisplay:10.37,2013-01-26 21:32:00,
2013-01-26 16:33:00,37.4,8.0,30.23,WNW,302,7.2,9.2,29,0.00,CLR,,0.04,WeatherDisplay:10.37,2013-01-26 21:33:00,
2013-01-26 16:36:00,37.2,7.8,30.24,WNW,284,7.2,11.5,29,0.00,CLR,,0.04,WeatherDisplay:10.37,2013-01-26 21:36:00,
2013-01-26 16:37:00,37.1,8.5,30.23,NNW,343,5.7,9.2,30,0.00,CLR,,0.04,WeatherDisplay:10.37,2013-01-26 21:37:00,
2013-01-26 16:38:00,37.4,8.7,30.24,NW,313,7.7,10.4,30,0.00,CLR,,0.04,WeatherDisplay:10.37,2013-01-26 21:38:00,
2013-01-26 16:41:00,37.4,8.0,30.24,NW,311,6.0,9.2,29,0.00,CLR,,0.04,WeatherDisplay:10.37,2013-01-26 21:41:00,
2013-01-26 16:42:00,36.8,8.2,30.24,NNW,344,7.7,9.2,30,0.00,CLR,,0.04,WeatherDisplay:10.37,2013-01-26 21:42:00,
2013-01-26 16:43:00,36.5,8.0,30.24,NNW,339,7.4,10.4,30,0.00,CLR,,0.04,WeatherDisplay:10.37,2013-01-26 21:43:00,
2013-01-26 16:47:00,35.4,7.7,30.24,WNW,287,7.5,9.2,31,0.00,CLR,,0.04,WeatherDisplay:10.37,2013-01-26 21:47:00,
2013-01-26 16:49:00,36.0,8.2,30.24,WNW,296,5.3,8.1,31,0.00,CLR,,0.04,WeatherDisplay:10.37,2013-01-26 21:49:00,
2013-01-26 16:52:00,35.8,8.1,30.24,NW,316,4.5,5.8,31,0.00,CLR,,0.04,WeatherDisplay:10.37,2013-01-26 21:52:00,
2013-01-26 16:54:00,36.1,9.0,30.24,NW,311,4.8,8.1,32,0.00,CLR,,0.04,WeatherDisplay:10.37,2013-01-26 21:54:00,
2013-01-26 16:57:00,35.7,8.0,30.24,NW,326,8.7,11.5,31,0.00,CLR,,0.04,WeatherDisplay:10.37,2013-01-26 21:57:00,
2013-01-26 16:59:00,36.0,8.2,30.24,NW,309,8.0,9.2,31,0.00,CLR,,0.04,WeatherDisplay:10.37,2013-01-26 21:59:00,
2013-01-26 17:02:00,35.7,7.3,30.24,NW,304,6.9,9.2,30,0.00,CLR,,0.04,WeatherDisplay:10.37,2013-01-26 22:02:00,
2013-01-26 17:03:00,35.7,7.3,30.24,WNW,291,6.4,9.2,30,0.00,CLR,,0.04,WeatherDisplay:10.37,2013-01-26 22:03:00,
2013-01-26 17:04:00,35.7,7.3,30.24,NW,311,8.4,9.2,30,0.00,CLR,,0.04,WeatherDisplay:10.37,2013-01-26 22:04:00,
2013-01-26 17:07:00,35.4,7.7,30.25,NW,318,7.9,10.4,31,0.00,CLR,,0.04,WeatherDisplay:10.37,2013-01-26 22:07:00,
2013-01-26 17:08:00,35.6,7.9,30.25,West,280,7.7,10.4,31,0.00,CLR,,0.04,WeatherDisplay:10.37,2013-01-26 22:08:00,
2013-01-26 17:10:00,35.4,7.7,30.25,NNW,328,5.1,9.2,31,0.00,CLR,,0.04,WeatherDisplay:10.37,2013-01-26 22:10:00,
2013-01-26 17:12:00,34.8,7.2,30.25,NNW,328,9.3,12.7,31,0.00,CLR,,0.04,WeatherDisplay:10.37,2013-01-26 22:12:00,
2013-01-26 17:13:00,35.6,7.9,30.25,NW,311,9.6,12.7,31,0.00,CLR,,0.04,WeatherDisplay:10.37,2013-01-26 22:13:00,
2013-01-26 17:15:00,34.9,8.0,30.25,NNW,330,8.0,10.4,32,0.00,CLR,,0.04,WeatherDisplay:10.37,2013-01-26 22:15:00,
2013-01-26 17:17:00,33.8,7.0,30.25,NNW,344,7.7,15.0,32,0.00,CLR,,0.04,WeatherDisplay:10.37,2013-01-26 22:17:00,
2013-01-26 17:18:00,33.3,7.2,30.25,NW,326,7.1,9.2,33,0.00,CLR,,0.04,WeatherDisplay:10.37,2013-01-26 22:18:00,
2013-01-26 17:20:00,34.0,7.9,30.25,NNW,340,6.2,9.2,33,0.00,CLR,,0.04,WeatherDisplay:10.37,2013-01-26 22:20:00,
2013-01-26 17:23:00,34.7,8.5,30.25,NW,325,8.7,12.7,33,0.00,CLR,,0.04,WeatherDisplay:10.37,2013-01-26 22:23:00,
2013-01-26 17:25:00,34.2,8.7,30.25,NW,306,4.5,9.2,34,0.00,CLR,,0.04,WeatherDisplay:10.37,2013-01-26 22:25:00,
2013-01-26 17:28:00,33.9,7.8,30.25,NW,304,7.2,8.1,33,0.00,CLR,,0.04,WeatherDisplay:10.37,2013-01-26 22:28:00,
2013-01-26 17:30:00,34.2,7.4,30.25,NNW,330,8.6,12.7,32,0.00,CLR,,0.04,WeatherDisplay:10.37,2013-01-26 22:30:00,
2013-01-26 17:33:00,34.2,8.0,30.25,NW,315,9.0,10.4,33,0.00,CLR,,0.04,WeatherDisplay:10.37,2013-01-26 22:33:00,
2013-01-26 17:35:00,33.8,7.7,30.25,NNW,330,9.7,11.5,33,0.00,CLR,,0.04,WeatherDisplay:10.37,2013-01-26 22:35:00,
2013-01-26 17:38:00,32.8,7.5,30.25,NW,315,11.1,13.8,34,0.00,CLR,,0.04,WeatherDisplay:10.37,2013-01-26 22:38:00,
2013-01-26 17:40:00,33.8,8.4,30.25,NW,304,8.1,10.4,34,0.00,CLR,,0.04,WeatherDisplay:10.37,2013-01-26 22:40:00,
2013-01-26 17:43:00,33.8,8.4,30.25,NW,316,7.5,12.7,34,0.00,CLR,,0.04,WeatherDisplay:10.37,2013-01-26 22:43:00,
2013-01-26 17:45:00,33.8,7.7,30.25,NNW,337,11.5,13.8,33,0.00,CLR,,0.04,WeatherDisplay:10.37,2013-01-26 22:45:00,
2013-01-26 17:48:00,33.8,8.4,30.25,North,354,8.7,9.2,34,0.00,CLR,,0.04,WeatherDisplay:10.37,2013-01-26 22:48:00,
2013-01-26 17:50:00,33.8,8.4,30.25,WNW,298,6.3,9.2,34,0.00,CLR,,0.04,WeatherDisplay:10.37,2013-01-26 22:50:00,
2013-01-26 17:53:00,33.0,7.6,30.25,NNE,13,8.0,10.4,34,0.00,CLR,,0.04,WeatherDisplay:10.37,2013-01-26 22:53:00,
2013-01-26 17:56:00,32.5,7.2,30.26,NW,320,7.5,11.5,34,0.00,CLR,,0.04,WeatherDisplay:10.37,2013-01-26 22:56:00,
2013-01-26 17:58:00,33.1,7.7,30.26,NW,315,7.0,11.5,34,0.00,CLR,,0.04,WeatherDisplay:10.37,2013-01-26 22:58:00,
2013-01-26 17:59:00,33.1,7.7,30.26,NNW,344,8.2,11.5,34,0.00,CLR,,0.04,WeatherDisplay:10.37,2013-01-26 22:59:00,
2013-01-26 18:01:00,33.0,7.6,30.26,NW,305,10.1,15.0,34,0.00,CLR,,0.04,WeatherDisplay:10.37,2013-01-26 23:01:00,
2013-01-26 18:03:00,33.1,8.4,30.26,NW,319,5.2,8.1,35,0.00,CLR,,0.04,WeatherDisplay:10.37,2013-01-26 23:03:00,
2013-01-26 18:04:00,33.2,8.5,30.26,NW,316,4.7,8.1,35,0.00,CLR,,0.04,WeatherDisplay:10.37,2013-01-26 23:04:00,
2013-01-26 18:06:00,33.6,8.8,30.26,WNW,295,2.7,6.9,35,0.00,CLR,,0.04,WeatherDisplay:10.37,2013-01-26 23:06:00,
2013-01-26 18:08:00,32.0,7.4,30.27,NW,325,8.1,10.4,35,0.00,CLR,,0.04,WeatherDisplay:10.37,2013-01-26 23:08:00,
2013-01-26 18:09:00,31.2,6.7,30.27,NNW,340,7.7,10.4,35,0.00,CLR,,0.04,WeatherDisplay:10.37,2013-01-26 23:09:00,
2013-01-26 18:11:00,31.5,6.9,30.27,NNW,336,3.3,5.8,35,0.00,CLR,,0.04,WeatherDisplay:10.37,2013-01-26 23:11:00,
2013-01-26 18:14:00,32.0,8.0,30.27,NNW,333,4.3,9.2,36,0.00,CLR,,0.04,WeatherDisplay:10.37,2013-01-26 23:14:00,
2013-01-26 18:15:00,32.0,7.4,30.27,NW,322,7.3,9.2,35,0.00,CLR,,0.04,WeatherDisplay:10.37,2013-01-26 23:15:00,
2013-01-26 18:16:00,32.7,8.6,30.27,NNW,339,7.1,10.0,36,0.00,CLR,,0.04,WeatherDisplay:10.37,2013-01-26 23:16:00,
2013-01-26 18:19:00,32.3,8.3,30.28,North,359,5.3,6.9,36,0.00,CLR,,0.04,WeatherDisplay:10.37,2013-01-26 23:19:00,
2013-01-26 18:20:00,31.1,7.2,30.27,NW,326,6.2,8.1,36,0.00,CLR,,0.04,WeatherDisplay:10.37,2013-01-26 23:20:00,
2013-01-26 18:21:00,32.7,8.6,30.28,NW,320,7.9,10.4,36,0.00,CLR,,0.04,WeatherDisplay:10.37,2013-01-26 23:21:00,
2013-01-26 18:24:00,32.7,8.6,30.28,NW,316,3.4,8.1,36,0.00,CLR,,0.04,WeatherDisplay:10.37,2013-01-26 23:24:00,
2013-01-26 18:25:00,32.7,8.6,30.28,NNW,347,6.1,6.9,36,0.00,CLR,,0.04,WeatherDisplay:10.37,2013-01-26 23:25:00,
2013-01-26 18:26:00,32.3,8.3,30.28,NW,320,7.6,10.4,36,0.00,CLR,,0.04,WeatherDisplay:10.37,2013-01-26 23:26:00,
2013-01-26 18:29:00,32.1,8.1,30.28,NW,318,7.6,9.2,36,0.00,CLR,,0.04,WeatherDisplay:10.37,2013-01-26 23:29:00,
2013-01-26 18:31:00,32.1,7.5,30.28,NW,326,7.7,9.2,35,0.00,CLR,,0.04,WeatherDisplay:10.37,2013-01-26 23:31:00,
2013-01-26 18:34:00,31.1,7.2,30.28,NNW,335,6.9,11.5,36,0.00,CLR,,0.04,WeatherDisplay:10.37,2013-01-26 23:34:00,
2013-01-26 18:36:00,31.1,7.2,30.28,NW,326,5.9,8.1,36,0.00,CLR,,0.04,WeatherDisplay:10.37,2013-01-26 23:36:00,
2013-01-26 18:37:00,31.1,7.2,30.28,WNW,295,8.2,10.4,36,0.00,CLR,,0.04,WeatherDisplay:10.37,2013-01-26 23:37:00,
2013-01-26 18:40:00,31.4,7.5,30.28,NNW,339,5.8,9.2,36,0.00,CLR,,0.04,WeatherDisplay:10.37,2013-01-26 23:40:00,
2013-01-26 18:41:00,31.4,7.5,30.28,NNW,342,8.5,13.8,36,0.00,CLR,,0.04,WeatherDisplay:10.37,2013-01-26 23:41:00,
2013-01-26 18:42:00,31.4,7.5,30.28,WNW,294,7.4,13.8,36,0.00,CLR,,0.04,WeatherDisplay:10.37,2013-01-26 23:42:00,
2013-01-26 18:45:00,32.3,8.9,30.28,NW,304,6.2,8.1,37,0.00,CLR,,0.04,WeatherDisplay:10.37,2013-01-26 23:45:00,
2013-01-26 18:46:00,32.3,8.9,30.29,NW,320,8.2,9.2,37,0.00,CLR,,0.04,WeatherDisplay:10.37,2013-01-26 23:46:00,
2013-01-26 18:47:00,32.3,8.9,30.28,NNW,346,6.5,11.5,37,0.00,CLR,,0.04,WeatherDisplay:10.37,2013-01-26 23:47:00,
2013-01-26 18:50:00,29.1,6.0,30.29,NNW,340,6.7,12.4,37,0.00,CLR,,0.04,WeatherDisplay:10.37,2013-01-26 23:50:00,
2013-01-26 18:52:00,31.7,8.4,30.29,NW,311,6.7,9.2,37,0.00,CLR,,0.04,WeatherDisplay:10.37,2013-01-26 23:52:00,
2013-01-26 18:55:00,32.1,9.3,30.29,NW,323,6.4,9.2,38,0.00,CLR,,0.04,WeatherDisplay:10.37,2013-01-26 23:55:00,
2013-01-26 18:57:00,31.2,7.9,30.29,NW,323,9.3,11.5,37,0.00,CLR,,0.04,WeatherDisplay:10.37,2013-01-26 23:57:00,
2013-01-26 19:00:00,32.1,9.3,30.29,NNW,343,6.7,8.1,38,0.00,CLR,,0.04,WeatherDisplay:10.37,2013-01-27 00:00:00,
2013-01-26 19:02:00,32.1,9.3,30.29,NNW,339,3.9,6.9,38,0.00,CLR,,0.04,WeatherDisplay:10.37,2013-01-27 00:02:00,
2013-01-26 19:49:00,29.6,7.1,30.30,North,0,0.0,0.0,38,0.00,CLR,,0.04,WeatherDisplay:10.37,2013-01-27 00:49:00,
2013-01-26 19:54:00,29.6,6.5,30.31,NW,304,0.6,5.8,37,0.00,CLR,,0.04,WeatherDisplay:10.37,2013-01-27 00:54:00,
2013-01-26 19:59:00,30.0,6.2,30.32,NNW,329,6.0,8.1,36,0.00,CLR,,0.04,WeatherDisplay:10.37,2013-01-27 00:59:00,
2013-01-26 20:00:00,30.0,6.2,30.32,North,360,6.0,8.1,36,0.00,CLR,,0.04,WeatherDisplay:10.37,2013-01-27 01:00:00,
2013-01-26 20:04:00,28.6,5.6,30.32,NNW,340,7.0,10.4,37,0.00,CLR,,0.04,WeatherDisplay:10.37,2013-01-27 01:04:00,
2013-01-26 20:05:00,28.6,5.6,30.32,NNW,343,7.2,9.2,37,0.00,CLR,,0.04,WeatherDisplay:10.37,2013-01-27 01:05:00,
2013-01-26 20:10:00,28.2,5.8,30.32,NNW,342,1.9,4.6,38,0.00,CLR,,0.04,WeatherDisplay:10.37,2013-01-27 01:10:00,
2013-01-26 20:15:00,28.7,6.3,30.33,NNW,344,4.3,5.8,38,0.00,CLR,,0.04,WeatherDisplay:10.37,2013-01-27 01:15:00,
2013-01-26 20:20:00,29.5,7.0,30.33,WNW,299,4.2,6.9,38,0.00,CLR,,0.04,WeatherDisplay:10.37,2013-01-27 01:20:00,
2013-01-26 20:25:00,27.6,5.3,30.33,NNW,347,4.6,6.9,38,0.00,CLR,,0.04,WeatherDisplay:10.37,2013-01-27 01:25:00,
2013-01-26 20:30:00,28.4,6.6,30.33,NNW,339,0.0,3.5,39,0.00,CLR,,0.04,WeatherDisplay:10.37,2013-01-27 01:30:00,
2013-01-26 20:35:00,27.9,6.1,30.33,NNW,332,3.2,6.9,39,0.00,CLR,,0.04,WeatherDisplay:10.37,2013-01-27 01:35:00,
2013-01-26 20:40:00,27.4,5.1,30.34,NNW,342,3.9,4.6,38,0.00,CLR,,0.04,WeatherDisplay:10.37,2013-01-27 01:40:00,
2013-01-26 20:41:00,27.4,5.1,24.95,North,0,5.7,63.7,38,0.00,CLR,,0.04,WeatherDisplay:10.37,2013-01-27 01:41:00,
2013-01-26 20:45:00,29.2,6.7,30.33,NNW,340,7.3,9.2,38,0.00,CLR,,0.04,WeatherDisplay:10.37,2013-01-27 01:45:00,
2013-01-26 20:46:00,29.2,6.7,30.33,NNW,333,7.2,9.2,38,0.00,CLR,,0.04,WeatherDisplay:10.37,2013-01-27 01:46:00,
2013-01-26 20:50:00,29.2,6.7,30.34,NNW,333,6.6,8.1,38,0.00,CLR,,0.04,WeatherDisplay:10.37,2013-01-27 01:50:00,
2013-01-26 20:51:00,29.2,6.7,24.19,NNW,339,7.8,11.5,38,0.00,CLR,,0.04,WeatherDisplay:10.37,2013-01-27 01:51:00,
2013-01-26 20:55:00,27.4,5.1,30.34,North,3,5.2,9.2,38,0.00,CLR,,0.04,WeatherDisplay:10.37,2013-01-27 01:55:00,
2013-01-26 20:56:00,27.4,5.1,30.34,WNW,288,4.2,9.2,38,0.00,CLR,,0.04,WeatherDisplay:10.37,2013-01-27 01:56:00,
2013-01-26 20:57:00,27.4,5.1,30.34,North,357,2.7,5.8,38,0.00,CLR,,0.04,WeatherDisplay:10.37,2013-01-27 01:57:00,
2013-01-26 21:00:00,27.4,5.1,30.34,NNW,335,5.0,8.1,38,0.00,CLR,,0.04,WeatherDisplay:10.37,2013-01-27 02:00:00,
2013-01-26 21:01:00,27.4,5.1,30.34,NW,319,2.6,8.5,38,0.00,CLR,,0.04,WeatherDisplay:10.37,2013-01-27 02:01:00,
2013-01-26 21:02:00,27.4,5.7,30.34,NNW,340,4.2,8.1,39,0.00,CLR,,0.04,WeatherDisplay:10.37,2013-01-27 02:02:00,
2013-01-26 21:05:00,27.4,5.1,30.34,North,352,2.7,8.1,38,0.00,CLR,,0.04,WeatherDisplay:10.37,2013-01-27 02:05:00,
2013-01-26 21:06:00,27.4,5.1,27.22,North,0,7.1,8.1,38,0.00,CLR,,0.04,WeatherDisplay:10.37,2013-01-27 02:06:00,
2013-01-26 21:07:00,27.4,5.1,30.35,NNW,344,6.7,9.2,38,0.00,CLR,,0.04,WeatherDisplay:10.37,2013-01-27 02:07:00,
2013-01-26 21:10:00,27.3,5.0,30.35,NNW,343,3.1,6.9,38,0.00,CLR,,0.04,WeatherDisplay:10.37,2013-01-27 02:10:00,
2013-01-26 21:11:00,27.3,5.0,30.35,NNW,343,0.8,6.9,38,0.00,CLR,,0.04,WeatherDisplay:10.37,2013-01-27 02:11:00,
2013-01-26 21:13:00,27.7,5.4,30.35,NW,312,1.2,3.0,38,0.00,CLR,,0.04,WeatherDisplay:10.37,2013-01-27 02:13:00,
2013-01-26 21:16:00,28.7,6.3,30.35,NNW,344,4.7,9.2,38,0.00,CLR,,0.04,WeatherDisplay:10.37,2013-01-27 02:16:00,
2013-01-26 21:18:00,28.7,6.3,30.35,NNW,346,4.6,8.6,38,0.00,CLR,,0.04,WeatherDisplay:10.37,2013-01-27 02:18:00,
2013-01-26 21:21:00,29.8,6.7,30.35,North,360,3.8,8.1,37,0.00,CLR,,0.04,WeatherDisplay:10.37,2013-01-27 02:21:00,
2013-01-26 21:23:00,27.3,4.4,30.35,North,359,3.6,6.9,37,0.00,CLR,,0.04,WeatherDisplay:10.37,2013-01-27 02:23:00,
2013-01-26 21:26:00,27.3,5.0,30.35,North,356,3.6,6.9,38,0.00,CLR,,0.04,WeatherDisplay:10.37,2013-01-27 02:26:00,
2013-01-26 21:28:00,29.2,6.7,30.35,North,360,2.9,5.8,38,0.00,CLR,,0.04,WeatherDisplay:10.37,2013-01-27 02:28:00,
2013-01-26 21:31:00,26.6,4.4,30.35,NNW,337,5.7,9.2,38,0.00,CLR,,0.04,WeatherDisplay:10.37,2013-01-27 02:31:00,
2013-01-26 21:32:00,26.6,4.4,30.35,NW,313,4.7,8.1,38,0.00,CLR,,0.04,WeatherDisplay:10.37,2013-01-27 02:32:00,
2013-01-26 21:33:00,26.6,4.4,30.36,NNW,337,7.1,9.2,38,0.00,CLR,,0.04,WeatherDisplay:10.37,2013-01-27 02:33:00,
2013-01-26 21:36:00,27.4,4.5,30.36,WNW,287,9.2,11.5,37,0.00,CLR,,0.04,WeatherDisplay:10.37,2013-01-27 02:36:00,
2013-01-26 21:37:00,27.4,4.5,30.36,NW,316,9.4,12.7,37,0.00,CLR,,0.04,WeatherDisplay:10.37,2013-01-27 02:37:00,
2013-01-26 21:38:00,27.4,4.5,30.36,NW,306,6.9,10.4,37,0.00,CLR,,0.04,WeatherDisplay:10.37,2013-01-27 02:38:00,
2013-01-26 21:41:00,26.0,3.2,30.36,West,277,7.2,10.3,37,0.00,CLR,,0.04,WeatherDisplay:10.37,2013-01-27 02:41:00,
2013-01-26 21:42:00,26.0,3.2,30.36,NNW,344,8.4,10.4,37,0.00,CLR,,0.04,WeatherDisplay:10.37,2013-01-27 02:42:00,
2013-01-26 21:43:00,28.9,5.8,30.36,NW,305,7.0,10.4,37,0.00,CLR,,0.04,WeatherDisplay:10.37,2013-01-27 02:43:00,
2013-01-26 21:46:00,28.9,6.4,30.36,NW,313,3.1,9.2,38,0.00,CLR,,0.04,WeatherDisplay:10.37,2013-01-27 02:46:00,
2013-01-26 21:47:00,28.9,6.4,30.36,NNW,332,3.9,9.1,38,0.00,CLR,,0.04,WeatherDisplay:10.37,2013-01-27 02:47:00,
2013-01-26 21:48:00,27.8,4.9,30.36,WNW,289,6.9,9.2,37,0.00,CLR,,0.04,WeatherDisplay:10.37,2013-01-27 02:48:00,
2013-01-26 21:51:00,30.0,7.4,30.37,NW,319,4.4,9.2,38,0.00,CLR,,0.04,WeatherDisplay:10.37,2013-01-27 02:51:00,
2013-01-26 21:52:00,30.0,6.8,30.37,NNW,340,1.2,9.2,37,0.00,CLR,,0.04,WeatherDisplay:10.37,2013-01-27 02:52:00,
2013-01-26 21:53:00,30.0,7.4,30.37,NNW,336,4.1,8.1,38,0.00,CLR,,0.04,WeatherDisplay:10.37,2013-01-27 02:53:00,
2013-01-26 21:56:00,26.3,4.1,30.37,North,350,4.4,5.8,38,0.00,CLR,,0.04,WeatherDisplay:10.37,2013-01-27 02:56:00,
2013-01-26 21:57:00,26.3,4.1,30.37,North,350,1.1,5.8,38,0.00,CLR,,0.04,WeatherDisplay:10.37,2013-01-27 02:57:00,
2013-01-26 21:58:00,26.3,4.1,30.38,North,350,0.0,0.0,38,0.00,CLR,,0.04,WeatherDisplay:10.37,2013-01-27 02:58:00,
2013-01-26 22:01:00,26.3,4.1,30.38,North,350,0.0,0.0,38,0.00,CLR,,0.04,WeatherDisplay:10.37,2013-01-27 03:01:00,
2013-01-26 22:02:00,26.3,4.1,30.38,North,350,0.0,0.0,38,0.00,CLR,,0.04,WeatherDisplay:10.37,2013-01-27 03:02:00,
2013-01-26 22:03:00,26.3,4.1,30.38,North,350,0.0,0.0,38,0.00,CLR,,0.04,WeatherDisplay:10.37,2013-01-27 03:03:00,
2013-01-26 22:06:00,27.1,5.4,30.38,North,350,0.0,0.0,39,0.00,CLR,,0.04,WeatherDisplay:10.37,2013-01-27 03:06:00,
2013-01-26 22:07:00,27.1,5.4,30.38,North,350,0.0,0.0,39,0.00,CLR,,0.04,WeatherDisplay:10.37,2013-01-27 03:07:00,
2013-01-26 22:08:00,28.2,6.4,30.38,North,360,1.5,3.5,39,0.00,CLR,,0.04,WeatherDisplay:10.37,2013-01-27 03:08:00,
2013-01-26 22:11:00,26.6,4.9,30.38,North,360,0.1,1.1,39,0.00,CLR,,0.04,WeatherDisplay:10.37,2013-01-27 03:11:00,
2013-01-26 22:12:00,26.6,4.9,30.38,North,360,0.0,1.1,39,0.00,CLR,,0.04,WeatherDisplay:10.37,2013-01-27 03:12:00,
2013-01-26 22:13:00,26.6,4.9,30.38,NNE,18,2.2,5.1,39,0.00,CLR,,0.04,WeatherDisplay:10.37,2013-01-27 03:13:00,
2013-01-26 22:17:00,28.4,6.0,30.38,North,353,2.9,8.1,38,0.00,CLR,,0.04,WeatherDisplay:10.37,2013-01-27 03:17:00,
2013-01-26 22:19:00,28.8,6.3,30.38,NNW,329,5.7,6.9,38,0.00,CLR,,0.04,WeatherDisplay:10.37,2013-01-27 03:19:00,
2013-01-26 22:22:00,28.8,6.3,30.38,NW,320,5.6,6.9,38,0.00,CLR,,0.04,WeatherDisplay:10.37,2013-01-27 03:22:00,
2013-01-26 22:24:00,28.8,6.3,30.38,NW,319,4.9,6.9,38,0.00,CLR,,0.04,WeatherDisplay:10.37,2013-01-27 03:24:00,
2013-01-26 22:27:00,26.8,5.1,30.38,NW,322,1.8,5.8,39,0.00,CLR,,0.04,WeatherDisplay:10.37,2013-01-27 03:27:00,
2013-01-26 22:28:00,26.8,5.1,30.38,NNW,332,2.9,5.8,39,0.00,CLR,,0.04,WeatherDisplay:10.37,2013-01-27 03:28:00,
2013-01-26 22:29:00,26.8,4.0,30.38,North,350,6.4,11.5,37,0.00,CLR,,0.04,WeatherDisplay:10.37,2013-01-27 03:29:00,
2013-01-26 22:32:00,26.6,4.4,30.38,WNW,288,0.0,0.0,38,0.00,CLR,,0.04,WeatherDisplay:10.37,2013-01-27 03:32:00,
2013-01-26 22:33:00,26.6,4.4,30.38,WNW,288,0.0,0.0,38,0.00,CLR,,0.04,WeatherDisplay:10.37,2013-01-27 03:33:00,
2013-01-26 22:35:00,28.6,6.2,30.38,NNE,18,0.0,1.1,38,0.00,CLR,,0.04,WeatherDisplay:10.37,2013-01-27 03:35:00,
2013-01-26 22:38:00,28.6,6.2,30.38,NNW,336,0.9,4.6,38,0.00,CLR,,0.04,WeatherDisplay:10.37,2013-01-27 03:38:00,
2013-01-26 22:40:00,28.3,5.9,30.38,WNW,284,3.7,6.9,38,0.00,CLR,,0.04,WeatherDisplay:10.37,2013-01-27 03:40:00,
2013-01-26 22:43:00,24.6,2.6,30.38,NW,309,5.7,6.9,38,0.00,CLR,,0.04,WeatherDisplay:10.37,2013-01-27 03:43:00,
2013-01-26 22:45:00,24.6,2.6,30.38,NW,304,2.1,6.9,38,0.00,CLR,,0.04,WeatherDisplay:10.37,2013-01-27 03:45:00,
2013-01-26 22:48:00,24.6,3.1,30.38,WNW,296,3.7,8.7,39,0.00,CLR,,0.04,WeatherDisplay:10.37,2013-01-27 03:48:00,
2013-01-26 22:50:00,24.6,3.1,30.38,NW,318,6.5,8.1,39,0.00,CLR,,0.04,WeatherDisplay:10.37,2013-01-27 03:50:00,
2013-01-26 22:53:00,27.4,5.7,30.38,NW,323,8.1,11.5,39,0.00,CLR,,0.04,WeatherDisplay:10.37,2013-01-27 03:53:00,
2013-01-26 22:55:00,26.4,5.3,30.39,NW,315,5.8,8.1,40,0.00,CLR,,0.04,WeatherDisplay:10.37,2013-01-27 03:55:00,
2013-01-26 22:58:00,26.2,4.6,30.40,WNW,296,2.4,5.8,39,0.00,CLR,,0.04,WeatherDisplay:10.37,2013-01-27 03:58:00,
2013-01-26 23:00:00,26.2,4.6,30.40,WNW,289,1.8,6.9,39,0.00,CLR,,0.04,WeatherDisplay:10.37,2013-01-27 04:00:00,
2013-01-26 23:03:00,27.4,5.7,30.40,North,357,6.2,9.2,39,0.00,CLR,,0.04,WeatherDisplay:10.37,2013-01-27 04:03:00,
2013-01-26 23:05:00,28.7,6.8,30.40,NW,305,3.0,5.8,39,0.00,CLR,,0.04,WeatherDisplay:10.37,2013-01-27 04:05:00,
2013-01-26 23:08:00,28.7,6.8,30.40,NW,320,5.7,10.4,39,0.00,CLR,,0.04,WeatherDisplay:10.37,2013-01-27 04:08:00,
2013-01-26 23:10:00,28.7,6.3,30.40,NNW,332,4.1,8.1,38,0.00,CLR,,0.04,WeatherDisplay:10.37,2013-01-27 04:10:00,
2013-01-26 23:13:00,27.5,5.7,30.40,WNW,294,4.6,6.9,39,0.00,CLR,,0.04,WeatherDisplay:10.37,2013-01-27 04:13:00,
2013-01-26 23:16:00,27.6,5.3,30.40,NNW,339,7.8,9.2,38,0.00,CLR,,0.04,WeatherDisplay:10.37,2013-01-27 04:16:00,
2013-01-26 23:18:00,27.1,4.8,30.40,NW,304,4.8,6.9,38,0.00,CLR,,0.04,WeatherDisplay:10.37,2013-01-27 04:18:00,
2013-01-26 23:19:00,27.1,4.8,30.40,NW,304,4.8,6.9,38,0.00,CLR,,0.04,WeatherDisplay:10.37,2013-01-27 04:19:00,
2013-01-26 23:21:00,27.1,4.8,30.40,NNW,347,5.8,9.2,38,0.00,CLR,,0.04,WeatherDisplay:10.37,2013-01-27 04:21:00,
2013-01-26 23:24:00,27.1,5.4,30.40,NNW,329,5.4,8.1,39,0.00,CLR,,0.04,WeatherDisplay:10.37,2013-01-27 04:24:00,
2013-01-26 23:26:00,27.1,5.4,30.40,NW,308,5.3,6.9,39,0.00,CLR,,0.04,WeatherDisplay:10.37,2013-01-27 04:26:00,
2013-01-26 23:28:00,27.1,5.4,30.40,NW,322,5.3,5.8,39,0.00,CLR,,0.04,WeatherDisplay:10.37,2013-01-27 04:28:00,
2013-01-26 23:29:00,27.1,5.4,30.40,North,354,5.1,5.8,39,0.00,CLR,,0.04,WeatherDisplay:10.37,2013-01-27 04:29:00,
2013-01-26 23:31:00,26.9,5.2,30.40,WNW,296,5.9,8.1,39,0.00,CLR,,0.04,WeatherDisplay:10.37,2013-01-27 04:31:00,
2013-01-26 23:33:00,26.4,5.3,30.40,WNW,299,0.0,0.0,40,0.00,CLR,,0.04,WeatherDisplay:10.37,2013-01-27 04:33:00,
2013-01-26 23:34:00,26.4,5.3,30.40,WNW,301,1.7,0.0,40,0.00,CLR,,0.04,WeatherDisplay:10.37,2013-01-27 04:34:00,
2013-01-26 23:36:00,29.6,8.2,30.40,NNE,16,4.4,5.8,40,0.00,CLR,,0.04,WeatherDisplay:10.37,2013-01-27 04:36:00,
2013-01-26 23:39:00,29.6,8.2,30.40,WNW,287,5.5,8.1,40,0.00,CLR,,0.04,WeatherDisplay:10.37,2013-01-27 04:39:00,
2013-01-26 23:42:00,29.6,7.6,30.40,NNW,332,5.0,6.9,39,0.00,CLR,,0.04,WeatherDisplay:10.37,2013-01-27 04:42:00,
2013-01-26 23:44:00,28.0,6.2,30.40,NW,306,4.8,5.8,39,0.00,CLR,,0.04,WeatherDisplay:10.37,2013-01-27 04:44:00,
2013-01-26 23:47:00,28.0,6.8,30.40,NNW,333,3.1,6.9,40,0.00,CLR,,0.04,WeatherDisplay:10.37,2013-01-27 04:47:00,
2013-01-26 23:49:00,28.0,6.8,30.40,NNW,342,0.6,6.9,40,0.00,CLR,,0.04,WeatherDisplay:10.37,2013-01-27 04:49:00,
2013-01-26 23:52:00,28.0,6.8,30.40,NNW,333,1.4,4.6,40,0.00,CLR,,0.04,WeatherDisplay:10.37,2013-01-27 04:52:00,
2013-01-26 23:54:00,29.2,7.8,30.40,North,4,4.5,5.8,40,0.00,CLR,,0.04,WeatherDisplay:10.37,2013-01-27 04:54:00,
2013-01-26 23:55:00,29.2,7.8,30.40,North,4,3.7,5.8,40,0.00,CLR,,0.04,WeatherDisplay:10.37,2013-01-27 04:55:00,
2013-01-26 23:57:00,29.2,8.4,30.40,NNW,337,1.0,6.9,41,0.00,CLR,,0.04,WeatherDisplay:10.37,2013-01-27 04:57:00,
2013-01-26 23:59:00,29.2,8.4,30.40,NNW,337,0.0,0.0,41,0.00,RA,,0.00,WeatherDisplay:10.37,2013-01-27 04:59:00,